Time;durP1;ratioP1;P1;durP2;ratioP2;P2;SDS_P1;SDS_P2;PMS_P1;PMS_P2;Temp;Humidity;BMP_temperature;BMP_pressure;BME280_temperature;BME280_humidity;BME280_pressure;Samples;Min_cycle;Max_cycle;Signal;HPM_P1;HPM_P2
2022/11/23 00:00:45;;;;;;;;;;;;;;;18.18;57.98;99664.26;2223599;78;51688;-80
2022/11/23 00:03:47;;;;;;;;;;;;;;;18.13;58.05;99663.52;2223691;79;50767;-79
2022/11/23 00:06:49;;;;;;;;;;;;;;;18.11;58.13;99658.91;2255507;78;50806;-79
2022/11/23 00:09:51;;;;;;;;;;;;;;;18.03;58.28;99653.73;2255590;79;50334;-80
2022/11/23 00:12:52;;;;;;;;;;;;;;;17.94;58.64;99648.27;2223864;79;49546;-80
2022/11/23 00:15:54;;;;;;;;;;;;;;;17.94;58.70;99644.27;2255544;79;50708;-80
2022/11/23 00:18:56;;;;;;;;;;;;;;;17.99;58.59;99638.60;2243104;79;50813;-80
2022/11/23 00:21:58;;;;;;;;;;;;;;;18.06;58.40;99639.97;2217147;80;50432;-80
2022/11/23 00:25:00;;;;;;;;;;;;;;;18.12;58.27;99638.31;2186348;80;52565;-80
2022/11/23 00:28:01;;;;;;;;;;;;;;;18.17;58.14;99639.34;2217301;79;51503;-80
2022/11/23 00:31:03;;;;;;;;;;;;;;;18.23;58.01;99637.17;2217324;80;51500;-80
2022/11/23 00:34:05;;;;;;;;;;;;;;;18.29;57.90;99643.59;2217392;80;50478;-80
2022/11/23 00:37:06;;;;;;;;;;;;;;;18.31;57.79;99640.69;2187087;80;50278;-80
2022/11/23 00:40:08;;;;;;;;;;;;;;;18.28;57.82;99643.26;2216917;80;51515;-80
2022/11/23 00:43:10;;;;;;;;;;;;;;;18.25;57.84;99648.52;2216989;80;51577;-79
2022/11/23 00:46:18;;;;;;;;;;;;;;;18.22;57.90;99645.43;2191850;78;51664;-80
2022/11/23 00:49:21;;;;;;;;;;;;;;;18.18;58.03;99657.56;2237363;78;49970;-80
2022/11/23 00:52:22;;;;;;;;;;;;;;;18.15;58.07;99666.02;2250587;78;51625;-80
2022/11/23 00:55:24;;;;;;;;;;;;;;;18.11;58.14;99662.08;2280593;78;50467;-80
2022/11/23 00:58:25;;;;;;;;;;;;;;;18.04;58.27;99666.92;2279949;78;50757;-80
2022/11/23 01:01:29;;;;;;;;;;;;;;;17.94;58.67;99671.84;2225284;78;51092;-80
2022/11/23 01:04:31;;;;;;;;;;;;;;;17.95;58.73;99680.17;2251387;78;50850;-80
2022/11/23 01:07:32;;;;;;;;;;;;;;;18.02;58.59;99666.30;2250480;78;51006;-80
2022/11/23 01:10:34;;;;;;;;;;;;;;;18.10;58.40;99667.14;2250610;78;50662;-80
2022/11/23 01:13:36;;;;;;;;;;;;;;;18.17;58.23;99668.80;2237924;78;51792;-79
2022/11/23 01:16:38;;;;;;;;;;;;;;;18.25;58.04;99666.44;2257646;79;50833;-80
2022/11/23 01:19:40;;;;;;;;;;;;;;;18.27;57.92;99665.20;2257908;79;51499;-80
2022/11/23 01:22:41;;;;;;;;;;;;;;;18.28;57.88;99674.88;2258178;79;51509;-80
2022/11/23 01:25:43;;;;;;;;;;;;;;;18.25;57.91;99662.42;2226527;79;51687;-80
2022/11/23 01:28:45;;;;;;;;;;;;;;;18.22;57.96;99669.53;2258335;79;51308;-80
2022/11/23 01:31:46;;;;;;;;;;;;;;;18.19;58.04;99665.93;2257629;79;52233;-80
2022/11/23 01:34:48;;;;;;;;;;;;;;;18.16;58.12;99668.50;2257420;79;50763;-80
2022/11/23 01:37:49;;;;;;;;;;;;;;;18.12;58.20;99667.77;2225438;79;50144;-80
2022/11/23 01:40:51;;;;;;;;;;;;;;;18.08;58.38;99667.84;2226125;79;52090;-80
2022/11/23 01:43:52;;;;;;;;;;;;;;;17.99;58.62;99673.40;2257447;79;52229;-80
2022/11/23 01:46:54;;;;;;;;;;;;;;;17.94;58.79;99670.50;2261110;78;50764;-79
2022/11/23 01:49:56;;;;;;;;;;;;;;;17.97;58.83;99678.12;2205359;79;52628;-78
2022/11/23 01:52:58;;;;;;;;;;;;;;;18.03;58.75;99676.48;2213370;80;51539;-81
2022/11/23 01:56:00;;;;;;;;;;;;;;;18.10;58.66;99680.52;2212631;80;50703;-80
2022/11/23 01:59:02;;;;;;;;;;;;;;;18.16;58.43;99685.05;2212875;80;51693;-81
2022/11/23 02:02:04;;;;;;;;;;;;;;;18.21;58.31;99677.23;2213095;80;50696;-81
2022/11/23 02:05:05;;;;;;;;;;;;;;;18.28;58.17;99684.77;2182463;80;49457;-79
2022/11/23 02:08:07;;;;;;;;;;;;;;;18.31;58.06;99684.88;2180891;80;50424;-81
2022/11/23 02:11:09;;;;;;;;;;;;;;;18.30;58.02;99679.22;2211387;80;52204;-81
2022/11/23 02:14:10;;;;;;;;;;;;;;;18.27;58.08;99676.44;2180653;80;50118;-80
2022/11/23 02:17:12;;;;;;;;;;;;;;;18.23;58.13;99673.84;2232623;79;51561;-80
2022/11/23 02:20:14;;;;;;;;;;;;;;;18.18;58.26;99666.41;2226523;79;51071;-80
2022/11/23 02:23:34;;;;;;;;;;;;;;;18.15;58.32;99674.86;2217593;80;50468;-79
2022/11/23 02:26:35;;;;;;;;;;;;;;;18.11;58.36;99680.82;2186242;80;50159;-79
2022/11/23 02:29:37;;;;;;;;;;;;;;;18.06;58.50;99679.59;2217024;79;51484;-79
2022/11/23 02:32:38;;;;;;;;;;;;;;;17.97;58.75;99680.80;2217124;80;51528;-79
2022/11/23 02:35:48;;;;;;;;;;;;;;;17.96;58.82;99671.13;2216873;80;50731;-79
2022/11/23 02:38:49;;;;;;;;;;;;;;;18.01;58.77;99671.35;2185953;80;49769;-79
2022/11/23 02:41:51;;;;;;;;;;;;;;;18.09;58.64;99670.34;2217083;80;50422;-79
2022/11/23 02:45:07;;;;;;;;;;;;;;;18.14;58.48;99665.20;2217277;80;50723;-80
2022/11/23 02:48:08;;;;;;;;;;;;;;;18.20;58.33;99664.88;2247584;79;50902;-79
2022/11/23 02:51:10;;;;;;;;;;;;;;;18.27;58.16;99655.83;2223898;79;50955;-79
2022/11/23 02:54:11;;;;;;;;;;;;;;;18.29;58.05;99667.69;2224388;79;51643;-79
2022/11/23 02:57:13;;;;;;;;;;;;;;;18.26;58.06;99665.39;2256195;79;51467;-82
2022/11/23 03:00:15;;;;;;;;;;;;;;;18.23;58.11;99671.16;2256240;79;52385;-79
2022/11/23 03:03:16;;;;;;;;;;;;;;;18.19;58.19;99668.61;2223630;79;52373;-79
2022/11/23 03:06:18;;;;;;;;;;;;;;;18.13;58.31;99678.25;2223960;79;50758;-79
2022/11/23 03:09:19;;;;;;;;;;;;;;;18.09;58.39;99670.86;2255564;79;50780;-79
2022/11/23 03:12:21;;;;;;;;;;;;;;;18.06;58.46;99688.14;2224216;79;50199;-79
2022/11/23 03:15:23;;;;;;;;;;;;;;;18.02;58.52;99683.70;2255375;79;50419;-79
2022/11/23 03:18:25;;;;;;;;;;;;;;;17.93;58.84;99695.63;2223863;79;51468;-79
2022/11/23 03:21:26;;;;;;;;;;;;;;;17.94;58.86;99695.11;2255702;79;50957;-78
2022/11/23 03:24:28;;;;;;;;;;;;;;;18.00;58.74;99688.42;2223779;79;51422;-80
2022/11/23 03:27:32;;;;;;;;;;;;;;;18.08;58.55;99688.74;2223609;78;52256;-79
2022/11/23 03:30:33;;;;;;;;;;;;;;;18.14;58.37;99691.15;2224443;79;22066;-79
2022/11/23 03:33:34;;;;;;;;;;;;;;;18.19;58.26;99690.84;2255405;79;50707;-80
2022/11/23 03:36:36;;;;;;;;;;;;;;;18.26;58.20;99696.19;2223751;79;50781;-80
2022/11/23 03:39:37;;;;;;;;;;;;;;;18.30;58.07;99697.44;2199851;79;50896;-80
2022/11/23 03:42:39;;;;;;;;;;;;;;;18.28;58.00;99688.78;2223545;79;51598;-80
2022/11/23 03:45:41;;;;;;;;;;;;;;;18.27;58.01;99691.16;2223637;79;50740;-80
2022/11/23 03:48:43;;;;;;;;;;;;;;;18.22;58.03;99685.59;2255616;79;51447;-80
2022/11/23 03:51:44;;;;;;;;;;;;;;;18.19;58.12;99688.69;2223884;79;52395;-80
2022/11/23 03:54:46;;;;;;;;;;;;;;;18.15;58.19;99681.55;2246883;79;50412;-80
2022/11/23 03:57:48;;;;;;;;;;;;;;;18.12;58.28;99689.19;2208932;79;51505;-80
2022/11/23 04:00:50;;;;;;;;;;;;;;;18.08;58.33;99683.39;2231394;79;51800;-78
2022/11/23 04:03:51;;;;;;;;;;;;;;;17.97;58.59;99687.48;2208375;79;51333;-80
2022/11/23 04:06:53;;;;;;;;;;;;;;;17.94;58.81;99687.08;2231590;79;49840;-80
2022/11/23 04:09:54;;;;;;;;;;;;;;;17.97;58.75;99692.84;2208863;79;50788;-79
2022/11/23 04:12:56;;;;;;;;;;;;;;;18.04;58.60;99695.03;2231315;79;51581;-79
2022/11/23 04:15:58;;;;;;;;;;;;;;;18.11;58.41;99687.52;2231490;79;50019;-79
2022/11/23 04:18:59;;;;;;;;;;;;;;;18.17;58.24;99689.39;2221098;79;51708;-79
2022/11/23 04:22:01;;;;;;;;;;;;;;;18.24;58.13;99694.25;2224487;79;50720;-79
2022/11/23 04:25:02;;;;;;;;;;;;;;;18.25;58.02;99685.18;2255708;79;51822;-79
2022/11/23 04:28:04;;;;;;;;;;;;;;;18.25;57.98;99690.02;2224207;79;50757;-79
2022/11/23 04:31:06;;;;;;;;;;;;;;;18.21;58.02;99690.13;2224186;79;51642;-80
2022/11/23 04:34:07;;;;;;;;;;;;;;;18.17;58.09;99686.72;2224088;79;50275;-79
2022/11/23 04:37:09;;;;;;;;;;;;;;;18.15;58.14;99690.92;2255836;79;50696;-79
2022/11/23 04:40:10;;;;;;;;;;;;;;;18.10;58.22;99692.57;2255726;79;50761;-79
2022/11/23 04:43:12;;;;;;;;;;;;;;;18.05;58.29;99693.98;2223929;79;50962;-81
2022/11/23 04:46:14;;;;;;;;;;;;;;;18.02;58.40;99691.72;2224010;79;51475;-80
2022/11/23 04:49:15;;;;;;;;;;;;;;;17.94;58.67;99699.95;2255859;78;51005;-80
2022/11/23 04:52:17;;;;;;;;;;;;;;;17.91;58.84;99696.34;2255849;79;50981;-79
2022/11/23 04:55:19;;;;;;;;;;;;;;;17.95;58.78;99705.59;2223695;79;50954;-80
2022/11/23 04:58:20;;;;;;;;;;;;;;;18.02;58.67;99698.94;2223975;79;50143;-79
2022/11/23 05:01:22;;;;;;;;;;;;;;;18.08;58.48;99708.00;2255474;79;50421;-76
2022/11/23 05:04:23;;;;;;;;;;;;;;;18.12;58.38;99702.05;2223096;79;51562;-75
2022/11/23 05:07:25;;;;;;;;;;;;;;;18.18;58.36;99696.39;2223141;79;51104;-75
2022/11/23 05:10:26;;;;;;;;;;;;;;;18.22;58.18;99700.32;2223523;79;50281;-75
2022/11/23 05:13:28;;;;;;;;;;;;;;;18.27;58.03;99703.21;2223007;79;51666;-75
2022/11/23 05:16:30;;;;;;;;;;;;;;;18.24;57.97;99700.95;2254964;79;50329;-75
2022/11/23 05:19:31;;;;;;;;;;;;;;;18.20;58.08;99702.38;2223247;79;51210;-74
2022/11/23 05:22:33;;;;;;;;;;;;;;;18.17;58.14;99699.59;2223396;79;50302;-75
2022/11/23 05:25:34;;;;;;;;;;;;;;;18.14;58.15;99708.03;2224035;79;51517;-75
2022/11/23 05:28:36;;;;;;;;;;;;;;;18.10;58.23;99701.42;2254851;79;50316;-75
2022/11/23 05:31:38;;;;;;;;;;;;;;;18.06;58.30;99694.84;2223565;79;52422;-74
2022/11/23 05:34:39;;;;;;;;;;;;;;;18.02;58.39;99697.08;2222782;79;52175;-74
2022/11/23 05:37:41;;;;;;;;;;;;;;;17.94;58.65;99695.93;2254735;79;51667;-75
2022/11/23 05:40:44;;;;;;;;;;;;;;;17.91;58.71;99700.36;2222827;79;51058;-75
2022/11/23 05:43:46;;;;;;;;;;;;;;;17.95;58.60;99695.41;2222854;79;51089;-74
2022/11/23 05:46:47;;;;;;;;;;;;;;;18.03;58.38;99697.89;2254973;78;50276;-75
2022/11/23 05:49:49;;;;;;;;;;;;;;;18.09;58.31;99687.73;2254815;79;50310;-75
2022/11/23 05:52:51;;;;;;;;;;;;;;;18.16;58.17;99689.06;2254864;77;51545;-75
2022/11/23 05:55:53;;;;;;;;;;;;;;;18.20;58.05;99697.02;2223057;79;51520;-75
2022/11/23 05:58:55;;;;;;;;;;;;;;;18.22;57.93;99696.30;2222852;79;51541;-76
2022/11/23 06:01:57;;;;;;;;;;;;;;;18.20;57.99;99693.00;2254652;79;51531;-75
2022/11/23 06:04:58;;;;;;;;;;;;;;;18.16;58.01;99686.39;2223024;79;50617;-74
2022/11/23 06:08:00;;;;;;;;;;;;;;;18.14;57.97;99686.61;2222767;79;50917;-76
2022/11/23 06:11:01;;;;;;;;;;;;;;;18.10;58.03;99684.54;2222931;79;50448;-76
2022/11/23 06:14:03;;;;;;;;;;;;;;;18.06;58.04;99697.00;2254767;79;50649;-76
2022/11/23 06:17:04;;;;;;;;;;;;;;;18.03;58.07;99693.39;2254800;79;50791;-76
2022/11/23 06:20:06;;;;;;;;;;;;;;;17.98;58.14;99703.88;2222975;79;50239;-76
2022/11/23 06:23:08;;;;;;;;;;;;;;;17.90;58.36;99702.70;2222963;79;50641;-76
2022/11/23 06:26:09;;;;;;;;;;;;;;;17.91;58.38;99697.67;2223069;79;50626;-76
2022/11/23 06:29:11;;;;;;;;;;;;;;;17.99;58.20;99708.20;2254773;77;51473;-76
2022/11/23 06:32:12;;;;;;;;;;;;;;;18.04;58.07;99706.25;2222778;79;52589;-76
2022/11/23 06:35:14;;;;;;;;;;;;;;;18.10;57.91;99703.28;2254751;77;51442;-76
2022/11/23 06:38:16;;;;;;;;;;;;;;;18.15;57.77;99708.84;2254781;77;51445;-77
2022/11/23 06:41:17;;;;;;;;;;;;;;;18.18;57.74;99709.25;2222648;79;52525;-76
2022/11/23 06:44:19;;;;;;;;;;;;;;;18.24;57.75;99709.80;2222724;79;52555;-76
2022/11/23 06:47:20;;;;;;;;;;;;;;;18.23;57.67;99711.33;2222985;79;51439;-76
2022/11/23 06:50:22;;;;;;;;;;;;;;;18.21;57.64;99713.38;2254757;79;51500;-77
2022/11/23 06:53:24;;;;;;;;;;;;;;;18.16;57.69;99718.52;2254697;79;50777;-77
2022/11/23 06:56:25;;;;;;;;;;;;;;;18.13;57.85;99713.58;2222909;79;50741;-77
2022/11/23 06:59:27;;;;;;;;;;;;;;;18.12;58.01;99723.98;2222837;79;51434;-76
2022/11/23 07:02:29;;;;;;;;;;;;;;;18.06;58.11;99727.78;2254860;79;51457;-76
2022/11/23 07:05:30;;;;;;;;;;;;;;;18.03;58.15;99728.19;2255132;79;51570;-77
2022/11/23 07:08:32;;;;;;;;;;;;;;;17.95;58.34;99724.33;2223068;79;52529;-76
2022/11/23 07:11:33;;;;;;;;;;;;;;;17.94;58.41;99726.70;2223045;79;51424;-76
2022/11/23 07:14:35;;;;;;;;;;;;;;;18.00;58.35;99733.10;2222988;79;53682;-76
2022/11/23 07:17:40;;;;;;;;;;;;;;;18.05;58.15;99734.14;2255040;79;51497;-76
2022/11/23 07:20:41;;;;;;;;;;;;;;;18.13;57.93;99734.99;2223218;79;51108;-76
2022/11/23 07:23:43;;;;;;;;;;;;;;;18.19;57.73;99742.23;2299213;77;51206;-76
2022/11/23 07:26:45;;;;;;;;;;;;;;;18.22;57.56;99744.50;2269523;77;50223;-77
2022/11/23 07:29:46;;;;;;;;;;;;;;;18.18;57.59;99743.24;2300245;77;50307;-76
2022/11/23 07:32:48;;;;;;;;;;;;;;;18.13;57.66;99749.20;2269654;77;51263;-77
2022/11/23 07:35:50;;;;;;;;;;;;;;;18.12;57.69;99761.47;2300203;77;50253;-77
2022/11/23 07:38:51;;;;;;;;;;;;;;;18.06;57.73;99757.23;2269640;77;51461;-77
2022/11/23 07:41:53;;;;;;;;;;;;;;;18.04;57.78;99761.13;2288776;77;50804;-77
2022/11/23 07:44:54;;;;;;;;;;;;;;;18.00;57.83;99755.34;2222870;79;51154;-78
2022/11/23 07:47:59;;;;;;;;;;;;;;;17.98;57.87;99767.27;2258589;78;50322;-77
2022/11/23 07:51:01;;;;;;;;;;;;;;;17.93;58.07;99761.20;2257791;77;50289;-76
2022/11/23 07:54:02;;;;;;;;;;;;;;;17.96;58.17;99765.33;2220621;79;50282;-76
2022/11/23 07:57:04;;;;;;;;;;;;;;;18.00;58.14;99766.05;2215719;79;52390;-76
2022/11/23 08:00:06;;;;;;;;;;;;;;;18.05;58.09;99768.94;2210091;79;50728;-76
2022/11/23 08:03:09;;;;;;;;;;;;;;;18.11;57.95;99772.69;2207002;79;51651;-75
2022/11/23 08:06:11;;;;;;;;;;;;;;;18.17;57.81;99773.73;2238570;79;50298;-77
2022/11/23 08:09:13;;;;;;;;;;;;;;;18.21;57.67;99773.63;2238585;79;51526;-77
2022/11/23 08:12:14;;;;;;;;;;;;;;;18.25;57.57;99774.89;2238604;79;51464;-76
2022/11/23 08:15:16;;;;;;;;;;;;;;;18.25;57.50;99784.25;2238480;79;50417;-76
2022/11/23 08:18:18;;;;;;;;;;;;;;;18.21;57.54;99786.52;2233526;79;51424;-77
2022/11/23 08:21:21;;;;;;;;;;;;;;;18.17;57.58;99781.25;2217170;79;52364;-77
2022/11/23 08:24:22;;;;;;;;;;;;;;;18.16;57.63;99782.77;2223103;79;50126;-78
2022/11/23 08:27:24;;;;;;;;;;;;;;;18.14;57.65;99784.85;2254861;79;50184;-77
2022/11/23 08:30:25;;;;;;;;;;;;;;;18.10;57.71;99784.92;2256465;77;50246;-77
2022/11/23 08:33:27;;;;;;;;;;;;;;;18.06;57.69;99785.34;2223933;79;49611;-78
2022/11/23 08:36:28;;;;;;;;;;;;;;;18.08;57.59;99787.80;2253464;79;51583;-77
2022/11/23 08:39:30;;;;;;;;;;;;;;;18.03;57.71;99793.77;2254567;78;51454;-77
2022/11/23 08:42:32;;;;;;;;;;;;;;;18.05;57.68;99780.98;2222858;79;50381;-78
2022/11/23 08:45:33;;;;;;;;;;;;;;;18.10;57.62;99784.92;2222803;79;49663;-79
2022/11/23 08:48:35;;;;;;;;;;;;;;;18.16;57.50;99787.64;2223036;79;51551;-77
2022/11/23 08:51:37;;;;;;;;;;;;;;;18.21;57.46;99783.84;2254693;79;51449;-77
2022/11/23 08:54:38;;;;;;;;;;;;;;;18.25;57.38;99783.73;2254560;79;50313;-77
2022/11/23 08:57:40;;;;;;;;;;;;;;;18.27;57.26;99789.72;2223018;79;49669;-77
2022/11/23 09:00:41;;;;;;;;;;;;;;;18.24;57.29;99794.15;2223186;79;50069;-76
2022/11/23 09:03:43;;;;;;;;;;;;;;;18.18;57.37;99794.12;2254593;79;50433;-78
2022/11/23 09:06:45;;;;;;;;;;;;;;;18.13;57.44;99800.06;2223099;79;50098;-78
2022/11/23 09:09:46;;;;;;;;;;;;;;;18.11;57.46;99803.97;2223358;79;51064;-79
2022/11/23 09:12:48;;;;;;;;;;;;;;;18.09;57.48;99795.34;2255438;79;51527;-79
2022/11/23 09:15:49;;;;;;;;;;;;;;;18.07;57.48;99795.52;2261973;77;50599;-78
2022/11/23 09:18:53;;;;;;;;;;;;;;;18.04;57.49;99793.25;2243082;78;51462;-78
2022/11/23 09:21:54;;;;;;;;;;;;;;;18.03;57.59;99796.94;2247453;78;51122;-78
2022/11/23 09:24:56;;;;;;;;;;;;;;;18.05;57.55;99795.71;2223117;79;50846;-79
2022/11/23 09:27:58;;;;;;;;;;;;;;;18.10;57.50;99792.44;2223594;79;51502;-79
2022/11/23 09:31:01;;;;;;;;;;;;;;;18.13;57.54;99793.89;2223702;79;50342;-79
2022/11/23 09:34:03;;;;;;;;;;;;;;;18.17;57.48;99787.13;2212585;79;52611;-78
2022/11/23 09:37:05;;;;;;;;;;;;;;;18.21;57.38;99777.64;2223428;79;50741;-78
2022/11/23 09:40:08;;;;;;;;;;;;;;;18.24;57.32;99786.11;2223308;79;50326;-79
2022/11/23 09:43:17;;;;;;;;;;;;;;;18.30;57.17;99780.98;2255165;79;50645;-79
2022/11/23 09:46:20;;;;;;;;;;;;;;;18.25;57.20;99786.41;2223143;78;51223;-78
2022/11/23 09:49:22;;;;;;;;;;;;;;;18.25;57.16;99781.06;2257344;78;50330;-77
2022/11/23 09:52:23;;;;;;;;;;;;;;;18.18;57.24;99780.20;2255085;79;50811;-78
2022/11/23 09:55:33;;;;;;;;;;;;;;;18.15;57.26;99779.28;2254837;79;51427;-78
2022/11/23 09:58:36;;;;;;;;;;;;;;;18.11;57.33;99778.05;2221838;79;52852;-78
2022/11/23 10:01:37;;;;;;;;;;;;;;;18.06;57.36;99781.32;2254993;79;50079;-79
2022/11/23 10:04:39;;;;;;;;;;;;;;;18.06;57.31;99778.64;2255220;78;50671;-78
2022/11/23 10:07:45;;;;;;;;;;;;;;;18.04;57.32;99771.32;2255088;79;50681;-78
2022/11/23 10:10:48;;;;;;;;;;;;;;;18.03;57.40;99769.68;2222073;79;51209;-78
2022/11/23 10:13:51;;;;;;;;;;;;;;;18.08;57.32;99769.58;2254991;79;50339;-79
2022/11/23 10:16:54;;;;;;;;;;;;;;;18.13;57.24;99770.62;2258128;78;50325;-78
2022/11/23 10:20:03;;;;;;;;;;;;;;;18.18;57.17;99770.84;2229732;78;50326;-79
2022/11/23 10:23:10;;;;;;;;;;;;;;;18.24;57.04;99770.05;2184408;80;51139;-77
2022/11/23 10:26:16;;;;;;;;;;;;;;;18.26;56.97;99777.38;2195622;80;50513;-80
2022/11/23 10:29:25;;;;;;;;;;;;;;;18.24;56.95;99773.25;2216926;80;51618;-78
2022/11/23 10:32:30;;;;;;;;;;;;;;;18.21;56.94;99769.12;2215934;79;51661;-78
2022/11/23 10:35:32;;;;;;;;;;;;;;;18.16;57.01;99762.70;2194968;77;51834;-80
2022/11/23 10:38:34;;;;;;;;;;;;;;;18.13;57.07;99771.14;2270387;77;51530;-79
2022/11/23 10:41:36;;;;;;;;;;;;;;;18.09;57.15;99769.91;2295878;77;51603;-80
2022/11/23 10:44:37;;;;;;;;;;;;;;;18.08;57.13;99772.25;2234994;79;50777;-79
2022/11/23 10:47:43;;;;;;;;;;;;;;;18.07;57.05;99759.38;2222206;79;52467;-78
2022/11/23 10:50:46;;;;;;;;;;;;;;;18.04;57.08;99768.64;2254387;79;50688;-78
2022/11/23 10:53:52;;;;;;;;;;;;;;;17.99;57.28;99763.06;2223770;79;50324;-79
2022/11/23 10:56:53;;;;;;;;;;;;;;;18.02;57.25;99757.30;2255593;79;50310;-79
2022/11/23 11:00:00;;;;;;;;;;;;;;;18.08;57.13;99757.01;2223562;79;52347;-78
2022/11/23 11:03:02;;;;;;;;;;;;;;;18.11;57.07;99762.47;2255482;79;50454;-79
2022/11/23 11:06:04;;;;;;;;;;;;;;;18.18;56.93;99757.97;2223703;79;51494;-79
2022/11/23 11:09:06;;;;;;;;;;;;;;;18.21;56.88;99758.41;2223251;79;50148;-79
2022/11/23 11:12:09;;;;;;;;;;;;;;;18.27;56.73;99757.59;2223406;79;52383;-79
2022/11/23 11:15:12;;;;;;;;;;;;;;;18.28;56.70;99763.77;2253742;79;51483;-79
2022/11/23 11:18:15;;;;;;;;;;;;;;;18.24;56.71;99751.30;2251798;79;51579;-78
2022/11/23 11:21:21;;;;;;;;;;;;;;;18.22;56.71;99748.52;2216995;80;51538;-79
2022/11/23 11:24:38;;;;;;;;;;;;;;;18.19;56.79;99742.23;2185687;80;51780;-78
2022/11/23 11:27:40;;;;;;;;;;;;;;;18.14;56.82;99741.50;2216828;80;50333;-78
2022/11/23 11:30:43;;;;;;;;;;;;;;;18.12;56.83;99742.73;2185837;80;50734;-79
2022/11/23 11:33:58;;;;;;;;;;;;;;;18.08;56.92;99741.47;2216509;79;50899;-77
2022/11/23 11:37:18;;;;;;;;;;;;;;;18.11;56.78;99745.07;2184377;80;49446;-78
2022/11/23 11:40:30;;;;;;;;;;;;;;;18.03;56.93;99740.23;2217170;80;51521;-80
2022/11/23 11:43:34;;;;;;;;;;;;;;;18.06;56.95;99741.16;2217245;80;51633;-80
2022/11/23 11:46:40;;;;;;;;;;;;;;;18.14;56.85;99739.34;2226635;79;50825;-78
2022/11/23 11:49:43;;;;;;;;;;;;;;;18.18;56.83;99743.24;2235714;78;50170;-79
2022/11/23 11:52:45;;;;;;;;;;;;;;;18.22;56.76;99745.84;2278180;78;51616;-80
2022/11/23 11:55:51;;;;;;;;;;;;;;;18.25;56.69;99745.43;2278190;78;50412;-78
2022/11/23 11:58:54;;;;;;;;;;;;;;;18.26;56.59;99740.38;2277968;78;51706;-78
2022/11/23 12:02:14;;;;;;;;;;;;;;;18.22;56.65;99745.32;2277352;77;51540;-79
2022/11/23 12:05:17;;;;;;;;;;;;;;;18.17;56.75;99738.41;2256045;78;50439;-79
2022/11/23 12:08:23;;;;;;;;;;;;;;;18.12;56.84;99742.73;2255514;79;51542;-80
2022/11/23 12:11:25;;;;;;;;;;;;;;;18.11;56.87;99746.41;2247632;78;51668;-78
2022/11/23 12:14:26;;;;;;;;;;;;;;;18.09;56.87;99747.15;2223110;79;52246;-79
2022/11/23 12:17:45;;;;;;;;;;;;;;;18.07;56.87;99748.67;2255275;79;51443;-79
2022/11/23 12:20:51;;;;;;;;;;;;;;;18.06;56.85;99749.72;2218093;79;50881;-78
2022/11/23 12:23:54;;;;;;;;;;;;;;;18.04;57.00;99745.89;2216203;80;52385;-78
2022/11/23 12:27:06;;;;;;;;;;;;;;;18.09;56.92;99744.47;2210437;80;52520;-79
2022/11/23 12:30:13;;;;;;;;;;;;;;;18.13;56.88;99744.36;2251729;79;50982;-78
2022/11/23 12:33:16;;;;;;;;;;;;;;;18.16;56.82;99747.48;2231465;79;51577;-80
2022/11/23 12:36:19;;;;;;;;;;;;;;;18.21;56.72;99741.00;2231014;79;51651;-80
2022/11/23 12:39:25;;;;;;;;;;;;;;;18.23;56.69;99742.13;2232788;79;51858;-79
2022/11/23 12:42:44;;;;;;;;;;;;;;;18.22;56.66;99742.64;2231037;79;50358;-79
2022/11/23 12:45:47;;;;;;;;;;;;;;;18.20;56.66;99738.52;2231340;79;51507;-79
2022/11/23 12:48:50;;;;;;;;;;;;;;;18.16;56.70;99747.48;2254613;79;51780;-79
2022/11/23 12:52:05;;;;;;;;;;;;;;;18.14;56.73;99741.50;2249647;79;50194;-78
2022/11/23 12:55:18;;;;;;;;;;;;;;;18.10;56.81;99746.11;2256273;79;50504;-80
2022/11/23 12:58:27;;;;;;;;;;;;;;;18.05;56.90;99750.20;2224380;79;50430;-78
2022/11/23 13:01:31;;;;;;;;;;;;;;;18.05;56.87;99746.70;2255757;78;51506;-79
2022/11/23 13:04:34;;;;;;;;;;;;;;;18.05;56.87;99754.22;2224314;79;52609;-78
2022/11/23 13:07:43;;;;;;;;;;;;;;;18.00;57.01;99749.98;2258511;79;51620;-78
2022/11/23 13:10:46;;;;;;;;;;;;;;;18.09;56.94;99749.83;2255484;78;50800;-79
2022/11/23 13:13:50;;;;;;;;;;;;;;;18.15;56.85;99745.81;2255186;79;50446;-79
2022/11/23 13:17:08;;;;;;;;;;;;;;;18.22;56.93;99745.84;2250940;78;51399;-78
2022/11/23 13:20:11;;;;;;;;;;;;;;;18.26;56.98;99748.41;2250411;79;50905;-79
2022/11/23 13:23:13;;;;;;;;;;;;;;;18.27;56.98;99743.38;2255946;79;50795;-80
2022/11/23 13:26:15;;;;;;;;;;;;;;;18.26;56.96;99743.05;2255914;79;50647;-77
2022/11/23 13:29:35;;;;;;;;;;;;;;;18.22;57.02;99747.18;2255795;77;50279;-79
2022/11/23 13:32:41;;;;;;;;;;;;;;;18.19;57.07;99749.75;2235036;79;50682;-78
2022/11/23 13:35:45;;;;;;;;;;;;;;;18.14;57.16;99738.00;2244026;79;50311;-81
2022/11/23 13:38:49;;;;;;;;;;;;;;;18.11;57.28;99731.69;2255542;79;51506;-80
2022/11/23 13:41:59;;;;;;;;;;;;;;;18.05;57.32;99735.48;2222610;79;52606;-81
2022/11/23 13:45:13;;;;;;;;;;;;;;;18.01;57.32;99738.27;2224309;79;51239;-79
2022/11/23 13:48:18;;;;;;;;;;;;;;;17.98;57.45;99737.83;2255939;79;51607;-80
2022/11/23 13:51:32;;;;;;;;;;;;;;;17.98;57.48;99741.35;2224582;79;51554;-80
2022/11/23 13:54:34;;;;;;;;;;;;;;;18.04;57.36;99744.55;2224117;79;51776;-80
2022/11/23 13:57:36;;;;;;;;;;;;;;;18.10;57.21;99740.76;2255849;79;51520;-80
2022/11/23 14:00:50;;;;;;;;;;;;;;;18.15;57.08;99753.02;2255783;78;50772;-80
2022/11/23 14:03:54;;;;;;;;;;;;;;;18.18;56.97;99745.92;2255367;79;51532;-80
2022/11/23 14:06:57;;;;;;;;;;;;;;;18.20;56.87;99749.23;2200544;79;52615;-80
2022/11/23 14:10:00;;;;;;;;;;;;;;;18.21;56.80;99750.37;2255654;79;50760;-80
2022/11/23 14:13:02;;;;;;;;;;;;;;;18.18;56.79;99747.26;2255638;79;51583;-80
2022/11/23 14:16:04;;;;;;;;;;;;;;;18.15;56.81;99749.01;2256077;78;50362;-80
2022/11/23 14:19:10;;;;;;;;;;;;;;;18.11;56.86;99755.30;2225319;79;52406;-80
2022/11/23 14:22:23;;;;;;;;;;;;;;;18.08;56.92;99756.19;2254035;78;50360;-80
2022/11/23 14:25:41;;;;;;;;;;;;;;;18.04;56.96;99755.78;2255264;79;51587;-81
2022/11/23 14:28:54;;;;;;;;;;;;;;;18.00;57.01;99756.67;2255498;79;50292;-81
2022/11/23 14:31:57;;;;;;;;;;;;;;;17.98;57.07;99744.52;2247929;78;52615;-81
2022/11/23 14:35:00;;;;;;;;;;;;;;;17.93;57.20;99746.48;2256345;79;51560;-80
2022/11/23 14:38:21;;;;;;;;;;;;;;;17.98;57.15;99752.06;2256635;79;50825;-80
2022/11/23 14:41:27;;;;;;;;;;;;;;;18.04;57.01;99760.61;2255546;79;50516;-80
2022/11/23 14:44:29;;;;;;;;;;;;;;;18.10;56.91;99759.50;2224820;79;51829;-80
2022/11/23 14:47:30;;;;;;;;;;;;;;;18.15;56.77;99765.89;2260642;78;51486;-80
2022/11/23 14:50:32;;;;;;;;;;;;;;;18.19;56.69;99763.66;2256428;79;50684;-79
2022/11/23 14:53:41;;;;;;;;;;;;;;;18.18;56.59;99773.52;2255573;79;51645;-77
2022/11/23 14:56:45;;;;;;;;;;;;;;;18.16;56.60;99773.41;2224028;79;52397;-78
2022/11/23 14:59:47;;;;;;;;;;;;;;;18.15;56.65;99777.12;2255329;79;50772;-78
2022/11/23 15:02:48;;;;;;;;;;;;;;;18.10;56.69;99772.88;2255358;79;50441;-80
2022/11/23 15:05:51;;;;;;;;;;;;;;;18.05;56.77;99772.95;2255718;79;50760;-79
2022/11/23 15:08:54;;;;;;;;;;;;;;;18.01;56.83;99771.73;2255632;79;50775;-79
2022/11/23 15:12:07;;;;;;;;;;;;;;;17.98;56.92;99772.14;2253697;78;50749;-79
2022/11/23 15:15:18;;;;;;;;;;;;;;;17.99;56.84;99771.62;2253783;78;51032;-78
2022/11/23 15:18:34;;;;;;;;;;;;;;;17.93;57.00;99770.57;2219364;79;51598;-79
2022/11/23 15:21:35;;;;;;;;;;;;;;;17.94;57.04;99784.25;2186154;80;50839;-79
2022/11/23 15:24:37;;;;;;;;;;;;;;;18.01;56.92;99783.77;2186255;80;51588;-79
2022/11/23 15:27:40;;;;;;;;;;;;;;;18.06;56.80;99788.02;2217183;80;51512;-79
2022/11/23 15:30:41;;;;;;;;;;;;;;;18.12;56.67;99782.88;2217237;80;50840;-79
2022/11/23 15:33:44;;;;;;;;;;;;;;;18.15;56.56;99789.98;2185969;79;52451;-79
2022/11/23 15:36:46;;;;;;;;;;;;;;;18.18;56.48;99792.26;2216690;80;52577;-79
2022/11/23 15:39:48;;;;;;;;;;;;;;;18.18;56.43;99794.12;2217135;80;51573;-79
2022/11/23 15:42:49;;;;;;;;;;;;;;;18.17;56.40;99797.83;2217276;80;51532;-79
2022/11/23 15:45:53;;;;;;;;;;;;;;;18.13;56.44;99800.06;2236548;77;51250;-78
2022/11/23 15:48:54;;;;;;;;;;;;;;;18.09;56.49;99796.67;2259202;78;50508;-79
2022/11/23 15:51:59;;;;;;;;;;;;;;;18.02;56.95;99806.83;2255223;78;50242;-74
2022/11/23 15:55:04;;;;;;;;;;;;;;;17.95;57.44;99807.30;2271592;77;51492;-74